sensor_id;sensor_type;location;lat;lon;timestamp;P1;durP1;ratioP1;P2;durP2;ratioP2
52554;SDS011;38455;52.710;6.502;2024-03-02T00:02:12;3.90;;;2.53;;
52554;SDS011;38455;52.710;6.502;2024-03-02T00:04:39;4.18;;;2.53;;
52554;SDS011;38455;52.710;6.502;2024-03-02T00:07:04;4.07;;;2.50;;
52554;SDS011;38455;52.710;6.502;2024-03-02T00:09:32;4.10;;;2.50;;
52554;SDS011;38455;52.710;6.502;2024-03-02T00:12:01;4.78;;;3.00;;
52554;SDS011;38455;52.710;6.502;2024-03-02T00:14:30;5.97;;;2.50;;
52554;SDS011;38455;52.710;6.502;2024-03-02T00:16:56;5.53;;;2.83;;
52554;SDS011;38455;52.710;6.502;2024-03-02T00:19:22;4.72;;;2.95;;
52554;SDS011;38455;52.710;6.502;2024-03-02T00:21:48;5.60;;;2.97;;
52554;SDS011;38455;52.710;6.502;2024-03-02T00:24:35;4.50;;;2.78;;
52554;SDS011;38455;52.710;6.502;2024-03-02T00:27:00;3.70;;;3.03;;
52554;SDS011;38455;52.710;6.502;2024-03-02T00:29:28;4.88;;;2.90;;
52554;SDS011;38455;52.710;6.502;2024-03-02T00:31:54;4.57;;;2.65;;
52554;SDS011;38455;52.710;6.502;2024-03-02T00:34:20;4.60;;;2.78;;
52554;SDS011;38455;52.710;6.502;2024-03-02T00:36:47;4.57;;;2.78;;
52554;SDS011;38455;52.710;6.502;2024-03-02T00:39:14;4.38;;;2.65;;
52554;SDS011;38455;52.710;6.502;2024-03-02T00:41:42;6.72;;;2.28;;
52554;SDS011;38455;52.710;6.502;2024-03-02T00:44:09;5.15;;;2.38;;
52554;SDS011;38455;52.710;6.502;2024-03-02T00:46:37;4.32;;;2.63;;
52554;SDS011;38455;52.710;6.502;2024-03-02T00:49:05;5.90;;;2.67;;
52554;SDS011;38455;52.710;6.502;2024-03-02T00:51:33;4.00;;;2.58;;
52554;SDS011;38455;52.710;6.502;2024-03-02T00:54:01;3.97;;;2.58;;
52554;SDS011;38455;52.710;6.502;2024-03-02T00:56:29;3.85;;;2.45;;
52554;SDS011;38455;52.710;6.502;2024-03-02T00:58:56;5.80;;;2.80;;
52554;SDS011;38455;52.710;6.502;2024-03-02T01:01:22;5.22;;;2.75;;
52554;SDS011;38455;52.710;6.502;2024-03-02T01:03:48;4.63;;;2.67;;
52554;SDS011;38455;52.710;6.502;2024-03-02T01:06:14;6.80;;;2.70;;
52554;SDS011;38455;52.710;6.502;2024-03-02T01:08:43;4.63;;;2.45;;
52554;SDS011;38455;52.710;6.502;2024-03-02T01:11:09;6.22;;;2.55;;
52554;SDS011;38455;52.710;6.502;2024-03-02T01:13:35;4.72;;;2.30;;
52554;SDS011;38455;52.710;6.502;2024-03-02T01:16:01;5.75;;;3.15;;
52554;SDS011;38455;52.710;6.502;2024-03-02T01:18:27;4.45;;;2.45;;
52554;SDS011;38455;52.710;6.502;2024-03-02T01:20:53;4.07;;;2.25;;
52554;SDS011;38455;52.710;6.502;2024-03-02T01:23:23;6.20;;;2.45;;
52554;SDS011;38455;52.710;6.502;2024-03-02T01:25:50;5.55;;;2.60;;
52554;SDS011;38455;52.710;6.502;2024-03-02T01:28:17;3.38;;;2.25;;
52554;SDS011;38455;52.710;6.502;2024-03-02T01:30:44;4.18;;;2.17;;
52554;SDS011;38455;52.710;6.502;2024-03-02T01:33:09;5.03;;;2.60;;
52554;SDS011;38455;52.710;6.502;2024-03-02T01:35:35;3.40;;;2.40;;
52554;SDS011;38455;52.710;6.502;2024-03-02T01:38:02;5.93;;;2.33;;
52554;SDS011;38455;52.710;6.502;2024-03-02T01:40:28;4.20;;;2.30;;
52554;SDS011;38455;52.710;6.502;2024-03-02T01:42:54;2.72;;;1.90;;
52554;SDS011;38455;52.710;6.502;2024-03-02T01:45:23;3.00;;;1.83;;
52554;SDS011;38455;52.710;6.502;2024-03-02T01:47:48;2.92;;;2.00;;
52554;SDS011;38455;52.710;6.502;2024-03-02T01:50:14;6.43;;;2.70;;
52554;SDS011;38455;52.710;6.502;2024-03-02T01:52:40;4.22;;;2.53;;
52554;SDS011;38455;52.710;6.502;2024-03-02T01:55:06;3.83;;;2.35;;
52554;SDS011;38455;52.710;6.502;2024-03-02T01:57:33;3.35;;;2.03;;
52554;SDS011;38455;52.710;6.502;2024-03-02T01:59:59;8.18;;;2.70;;
52554;SDS011;38455;52.710;6.502;2024-03-02T02:02:25;5.90;;;2.15;;
52554;SDS011;38455;52.710;6.502;2024-03-02T02:04:51;3.72;;;2.38;;
52554;SDS011;38455;52.710;6.502;2024-03-02T02:07:17;3.53;;;2.28;;
52554;SDS011;38455;52.710;6.502;2024-03-02T02:09:43;2.90;;;1.85;;
52554;SDS011;38455;52.710;6.502;2024-03-02T02:12:11;2.88;;;2.22;;
52554;SDS011;38455;52.710;6.502;2024-03-02T02:14:37;4.97;;;2.65;;
52554;SDS011;38455;52.710;6.502;2024-03-02T02:17:04;4.05;;;1.92;;
52554;SDS011;38455;52.710;6.502;2024-03-02T02:19:30;3.53;;;1.98;;
52554;SDS011;38455;52.710;6.502;2024-03-02T02:21:56;3.90;;;2.58;;
52554;SDS011;38455;52.710;6.502;2024-03-02T02:24:21;4.13;;;2.17;;
52554;SDS011;38455;52.710;6.502;2024-03-02T02:26:47;4.57;;;2.85;;
52554;SDS011;38455;52.710;6.502;2024-03-02T02:29:12;3.28;;;2.22;;
52554;SDS011;38455;52.710;6.502;2024-03-02T02:31:39;3.72;;;2.47;;
52554;SDS011;38455;52.710;6.502;2024-03-02T02:34:05;3.00;;;2.22;;
52554;SDS011;38455;52.710;6.502;2024-03-02T02:36:34;4.13;;;2.47;;
52554;SDS011;38455;52.710;6.502;2024-03-02T02:39:02;4.72;;;2.70;;
52554;SDS011;38455;52.710;6.502;2024-03-02T02:41:29;4.28;;;2.50;;
52554;SDS011;38455;52.710;6.502;2024-03-02T02:43:55;6.05;;;2.22;;
52554;SDS011;38455;52.710;6.502;2024-03-02T02:46:21;3.47;;;2.33;;
52554;SDS011;38455;52.710;6.502;2024-03-02T02:48:46;6.10;;;2.38;;
52554;SDS011;38455;52.710;6.502;2024-03-02T02:51:12;5.18;;;2.35;;
52554;SDS011;38455;52.710;6.502;2024-03-02T02:53:37;4.18;;;2.35;;
52554;SDS011;38455;52.710;6.502;2024-03-02T02:56:06;5.13;;;2.20;;
52554;SDS011;38455;52.710;6.502;2024-03-02T02:58:31;4.40;;;2.10;;
52554;SDS011;38455;52.710;6.502;2024-03-02T03:00:57;3.55;;;2.22;;
52554;SDS011;38455;52.710;6.502;2024-03-02T03:03:23;5.75;;;2.30;;
52554;SDS011;38455;52.710;6.502;2024-03-02T03:05:48;5.40;;;2.33;;
52554;SDS011;38455;52.710;6.502;2024-03-02T03:08:14;4.30;;;2.72;;
52554;SDS011;38455;52.710;6.502;2024-03-02T03:10:41;5.90;;;2.40;;
52554;SDS011;38455;52.710;6.502;2024-03-02T03:13:07;3.22;;;2.20;;
52554;SDS011;38455;52.710;6.502;2024-03-02T03:15:36;4.15;;;2.47;;
52554;SDS011;38455;52.710;6.502;2024-03-02T03:18:02;3.75;;;2.20;;
52554;SDS011;38455;52.710;6.502;2024-03-02T03:20:29;4.18;;;2.20;;
52554;SDS011;38455;52.710;6.502;2024-03-02T03:22:55;4.13;;;2.50;;
52554;SDS011;38455;52.710;6.502;2024-03-02T03:25:21;3.70;;;2.40;;
52554;SDS011;38455;52.710;6.502;2024-03-02T03:27:46;4.30;;;2.40;;
52554;SDS011;38455;52.710;6.502;2024-03-02T03:30:12;3.90;;;2.45;;
52554;SDS011;38455;52.710;6.502;2024-03-02T03:32:38;3.88;;;2.05;;
52554;SDS011;38455;52.710;6.502;2024-03-02T03:35:04;4.82;;;2.47;;
52554;SDS011;38455;52.710;6.502;2024-03-02T03:37:31;4.35;;;2.47;;
52554;SDS011;38455;52.710;6.502;2024-03-02T03:40:01;4.28;;;2.50;;
52554;SDS011;38455;52.710;6.502;2024-03-02T03:42:28;5.65;;;2.65;;
52554;SDS011;38455;52.710;6.502;2024-03-02T03:44:53;4.75;;;2.97;;
52554;SDS011;38455;52.710;6.502;2024-03-02T03:47:19;5.50;;;2.63;;
52554;SDS011;38455;52.710;6.502;2024-03-02T03:49:45;6.00;;;2.38;;
52554;SDS011;38455;52.710;6.502;2024-03-02T03:52:11;5.22;;;2.95;;
52554;SDS011;38455;52.710;6.502;2024-03-02T03:54:36;5.43;;;2.83;;
52554;SDS011;38455;52.710;6.502;2024-03-02T03:57:03;2.88;;;2.10;;
52554;SDS011;38455;52.710;6.502;2024-03-02T03:59:29;4.45;;;2.20;;
52554;SDS011;38455;52.710;6.502;2024-03-02T04:01:55;4.93;;;2.50;;
52554;SDS011;38455;52.710;6.502;2024-03-02T04:04:21;7.43;;;2.17;;
52554;SDS011;38455;52.710;6.502;2024-03-02T04:06:47;5.00;;;2.92;;
52554;SDS011;38455;52.710;6.502;2024-03-02T04:09:13;3.80;;;2.40;;
52554;SDS011;38455;52.710;6.502;2024-03-02T04:11:38;6.60;;;2.67;;
52554;SDS011;38455;52.710;6.502;2024-03-02T04:14:04;3.60;;;2.70;;
52554;SDS011;38455;52.710;6.502;2024-03-02T04:16:31;4.20;;;2.45;;
52554;SDS011;38455;52.710;6.502;2024-03-02T04:18:57;5.68;;;2.50;;
52554;SDS011;38455;52.710;6.502;2024-03-02T04:21:22;4.35;;;2.80;;
52554;SDS011;38455;52.710;6.502;2024-03-02T04:23:48;4.32;;;2.63;;
52554;SDS011;38455;52.710;6.502;2024-03-02T04:26:14;3.72;;;2.50;;
52554;SDS011;38455;52.710;6.502;2024-03-02T04:28:40;4.00;;;2.55;;
52554;SDS011;38455;52.710;6.502;2024-03-02T04:31:06;4.63;;;2.45;;
52554;SDS011;38455;52.710;6.502;2024-03-02T04:33:31;5.85;;;2.80;;
52554;SDS011;38455;52.710;6.502;2024-03-02T04:35:57;3.85;;;2.50;;
52554;SDS011;38455;52.710;6.502;2024-03-02T04:38:23;4.28;;;2.75;;
52554;SDS011;38455;52.710;6.502;2024-03-02T04:40:48;3.58;;;2.53;;
52554;SDS011;38455;52.710;6.502;2024-03-02T04:43:14;4.35;;;2.90;;
52554;SDS011;38455;52.710;6.502;2024-03-02T04:45:41;7.18;;;2.60;;
52554;SDS011;38455;52.710;6.502;2024-03-02T04:48:07;5.75;;;2.55;;
52554;SDS011;38455;52.710;6.502;2024-03-02T04:50:33;4.63;;;2.97;;
52554;SDS011;38455;52.710;6.502;2024-03-02T04:52:59;4.47;;;2.47;;
52554;SDS011;38455;52.710;6.502;2024-03-02T04:55:25;5.20;;;2.47;;
52554;SDS011;38455;52.710;6.502;2024-03-02T04:57:53;3.85;;;2.55;;
52554;SDS011;38455;52.710;6.502;2024-03-02T05:00:22;5.07;;;2.25;;
52554;SDS011;38455;52.710;6.502;2024-03-02T05:02:48;10.73;;;2.78;;
52554;SDS011;38455;52.710;6.502;2024-03-02T05:05:13;3.30;;;2.05;;
52554;SDS011;38455;52.710;6.502;2024-03-02T05:07:42;3.40;;;2.28;;
52554;SDS011;38455;52.710;6.502;2024-03-02T05:10:09;3.83;;;2.15;;
52554;SDS011;38455;52.710;6.502;2024-03-02T05:12:35;4.95;;;2.50;;
52554;SDS011;38455;52.710;6.502;2024-03-02T05:15:10;4.00;;;2.42;;
52554;SDS011;38455;52.710;6.502;2024-03-02T05:17:38;2.75;;;2.15;;
52554;SDS011;38455;52.710;6.502;2024-03-02T05:20:05;5.80;;;2.45;;
52554;SDS011;38455;52.710;6.502;2024-03-02T05:22:35;7.18;;;2.28;;
52554;SDS011;38455;52.710;6.502;2024-03-02T05:25:01;3.50;;;2.00;;
52554;SDS011;38455;52.710;6.502;2024-03-02T05:27:30;4.70;;;2.47;;
52554;SDS011;38455;52.710;6.502;2024-03-02T05:29:57;4.00;;;2.25;;
52554;SDS011;38455;52.710;6.502;2024-03-02T05:32:24;6.75;;;2.35;;
52554;SDS011;38455;52.710;6.502;2024-03-02T05:34:49;7.65;;;2.65;;
52554;SDS011;38455;52.710;6.502;2024-03-02T05:37:18;5.03;;;2.28;;
52554;SDS011;38455;52.710;6.502;2024-03-02T05:39:43;4.15;;;2.92;;
52554;SDS011;38455;52.710;6.502;2024-03-02T05:42:09;4.25;;;1.88;;
52554;SDS011;38455;52.710;6.502;2024-03-02T05:44:35;8.23;;;2.00;;
52554;SDS011;38455;52.710;6.502;2024-03-02T05:47:01;2.55;;;1.20;;
52554;SDS011;38455;52.710;6.502;2024-03-02T05:49:28;1.85;;;1.13;;
52554;SDS011;38455;52.710;6.502;2024-03-02T05:51:53;2.92;;;0.77;;
52554;SDS011;38455;52.710;6.502;2024-03-02T05:54:19;1.38;;;0.50;;
52554;SDS011;38455;52.710;6.502;2024-03-02T05:56:45;1.15;;;0.57;;
52554;SDS011;38455;52.710;6.502;2024-03-02T05:59:10;8.13;;;1.48;;
52554;SDS011;38455;52.710;6.502;2024-03-02T06:01:42;0.95;;;0.40;;
52554;SDS011;38455;52.710;6.502;2024-03-02T06:04:12;1.38;;;0.50;;
52554;SDS011;38455;52.710;6.502;2024-03-02T06:06:38;1.73;;;0.52;;
52554;SDS011;38455;52.710;6.502;2024-03-02T06:09:05;0.75;;;0.40;;
52554;SDS011;38455;52.710;6.502;2024-03-02T06:11:37;0.45;;;0.40;;
52554;SDS011;38455;52.710;6.502;2024-03-02T06:14:03;1.17;;;0.80;;
52554;SDS011;38455;52.710;6.502;2024-03-02T06:16:29;1.20;;;0.45;;
52554;SDS011;38455;52.710;6.502;2024-03-02T06:18:55;2.55;;;0.60;;
52554;SDS011;38455;52.710;6.502;2024-03-02T06:21:23;1.27;;;0.45;;
52554;SDS011;38455;52.710;6.502;2024-03-02T06:23:49;0.90;;;0.50;;
52554;SDS011;38455;52.710;6.502;2024-03-02T06:26:14;1.42;;;0.60;;
52554;SDS011;38455;52.710;6.502;2024-03-02T06:28:40;2.33;;;0.40;;
52554;SDS011;38455;52.710;6.502;2024-03-02T06:31:06;1.00;;;0.52;;
52554;SDS011;38455;52.710;6.502;2024-03-02T06:33:32;4.85;;;0.43;;
52554;SDS011;38455;52.710;6.502;2024-03-02T06:35:57;1.20;;;0.65;;
52554;SDS011;38455;52.710;6.502;2024-03-02T06:38:23;1.08;;;0.40;;
52554;SDS011;38455;52.710;6.502;2024-03-02T06:40:49;0.70;;;0.40;;
52554;SDS011;38455;52.710;6.502;2024-03-02T06:43:14;0.60;;;0.45;;
52554;SDS011;38455;52.710;6.502;2024-03-02T06:45:40;1.30;;;0.52;;
52554;SDS011;38455;52.710;6.502;2024-03-02T06:48:06;4.50;;;0.93;;
52554;SDS011;38455;52.710;6.502;2024-03-02T06:50:32;2.50;;;0.60;;
52554;SDS011;38455;52.710;6.502;2024-03-02T06:52:58;0.93;;;0.32;;
52554;SDS011;38455;52.710;6.502;2024-03-02T06:55:23;2.13;;;0.63;;
52554;SDS011;38455;52.710;6.502;2024-03-02T06:57:49;2.05;;;0.80;;
52554;SDS011;38455;52.710;6.502;2024-03-02T07:00:16;1.63;;;0.40;;
52554;SDS011;38455;52.710;6.502;2024-03-02T07:02:43;2.55;;;0.40;;
52554;SDS011;38455;52.710;6.502;2024-03-02T07:05:09;1.60;;;0.43;;
52554;SDS011;38455;52.710;6.502;2024-03-02T07:07:36;1.13;;;0.40;;
52554;SDS011;38455;52.710;6.502;2024-03-02T07:10:05;1.27;;;0.40;;
52554;SDS011;38455;52.710;6.502;2024-03-02T07:12:32;1.98;;;0.40;;
52554;SDS011;38455;52.710;6.502;2024-03-02T07:14:58;0.70;;;0.40;;
52554;SDS011;38455;52.710;6.502;2024-03-02T07:17:30;3.88;;;0.50;;
52554;SDS011;38455;52.710;6.502;2024-03-02T07:19:56;2.72;;;0.52;;
52554;SDS011;38455;52.710;6.502;2024-03-02T07:22:22;0.50;;;0.40;;
52554;SDS011;38455;52.710;6.502;2024-03-02T07:24:48;1.17;;;0.60;;
52554;SDS011;38455;52.710;6.502;2024-03-02T07:27:14;2.53;;;0.80;;
52554;SDS011;38455;52.710;6.502;2024-03-02T07:29:43;1.75;;;1.05;;
52554;SDS011;38455;52.710;6.502;2024-03-02T07:32:09;0.60;;;0.50;;
52554;SDS011;38455;52.710;6.502;2024-03-02T07:34:36;1.08;;;0.52;;
52554;SDS011;38455;52.710;6.502;2024-03-02T07:37:02;1.25;;;0.60;;
52554;SDS011;38455;52.710;6.502;2024-03-02T07:39:28;2.47;;;0.68;;
52554;SDS011;38455;52.710;6.502;2024-03-02T07:41:54;1.00;;;0.40;;
52554;SDS011;38455;52.710;6.502;2024-03-02T07:44:20;1.60;;;0.50;;
52554;SDS011;38455;52.710;6.502;2024-03-02T07:46:46;0.35;;;0.25;;
52554;SDS011;38455;52.710;6.502;2024-03-02T07:49:14;0.68;;;0.32;;
52554;SDS011;38455;52.710;6.502;2024-03-02T07:51:40;1.55;;;0.50;;
52554;SDS011;38455;52.710;6.502;2024-03-02T07:54:06;1.58;;;0.50;;
52554;SDS011;38455;52.710;6.502;2024-03-02T07:56:36;1.02;;;0.50;;
52554;SDS011;38455;52.710;6.502;2024-03-02T07:59:02;1.73;;;0.50;;
52554;SDS011;38455;52.710;6.502;2024-03-02T08:01:29;0.98;;;0.47;;
52554;SDS011;38455;52.710;6.502;2024-03-02T08:03:56;2.63;;;0.65;;
52554;SDS011;38455;52.710;6.502;2024-03-02T08:06:24;1.45;;;0.47;;
52554;SDS011;38455;52.710;6.502;2024-03-02T08:08:52;4.43;;;0.57;;
52554;SDS011;38455;52.710;6.502;2024-03-02T08:11:22;0.60;;;0.40;;
52554;SDS011;38455;52.710;6.502;2024-03-02T08:13:48;1.48;;;0.40;;
52554;SDS011;38455;52.710;6.502;2024-03-02T08:16:17;1.00;;;0.52;;
52554;SDS011;38455;52.710;6.502;2024-03-02T08:18:45;1.90;;;0.50;;
52554;SDS011;38455;52.710;6.502;2024-03-02T08:21:12;2.50;;;0.50;;
52554;SDS011;38455;52.710;6.502;2024-03-02T08:23:38;1.60;;;0.50;;
52554;SDS011;38455;52.710;6.502;2024-03-02T08:26:06;0.82;;;0.35;;
52554;SDS011;38455;52.710;6.502;2024-03-02T08:28:31;1.65;;;0.60;;
52554;SDS011;38455;52.710;6.502;2024-03-02T08:30:58;1.35;;;0.50;;
52554;SDS011;38455;52.710;6.502;2024-03-02T08:33:23;1.17;;;0.57;;
52554;SDS011;38455;52.710;6.502;2024-03-02T08:35:49;4.22;;;0.50;;
52554;SDS011;38455;52.710;6.502;2024-03-02T08:38:15;1.33;;;0.45;;
52554;SDS011;38455;52.710;6.502;2024-03-02T08:40:41;0.63;;;0.30;;
52554;SDS011;38455;52.710;6.502;2024-03-02T08:43:06;1.52;;;0.50;;
52554;SDS011;38455;52.710;6.502;2024-03-02T08:45:32;3.88;;;0.50;;
52554;SDS011;38455;52.710;6.502;2024-03-02T08:47:59;4.05;;;0.60;;
52554;SDS011;38455;52.710;6.502;2024-03-02T08:50:25;1.98;;;0.57;;
52554;SDS011;38455;52.710;6.502;2024-03-02T08:52:51;1.00;;;0.43;;
52554;SDS011;38455;52.710;6.502;2024-03-02T08:55:16;1.55;;;0.60;;
52554;SDS011;38455;52.710;6.502;2024-03-02T08:57:42;1.80;;;0.57;;
52554;SDS011;38455;52.710;6.502;2024-03-02T09:00:08;2.20;;;0.57;;
52554;SDS011;38455;52.710;6.502;2024-03-02T09:02:34;1.60;;;0.88;;
52554;SDS011;38455;52.710;6.502;2024-03-02T09:05:00;2.60;;;0.70;;
52554;SDS011;38455;52.710;6.502;2024-03-02T09:07:26;2.35;;;0.50;;
52554;SDS011;38455;52.710;6.502;2024-03-02T09:09:52;3.83;;;0.90;;
52554;SDS011;38455;52.710;6.502;2024-03-02T09:12:17;2.22;;;0.60;;
52554;SDS011;38455;52.710;6.502;2024-03-02T09:14:44;1.95;;;0.60;;
52554;SDS011;38455;52.710;6.502;2024-03-02T09:17:10;0.93;;;0.55;;
52554;SDS011;38455;52.710;6.502;2024-03-02T09:19:37;3.08;;;0.60;;
52554;SDS011;38455;52.710;6.502;2024-03-02T09:22:03;4.43;;;0.73;;
52554;SDS011;38455;52.710;6.502;2024-03-02T09:24:30;2.30;;;0.55;;
52554;SDS011;38455;52.710;6.502;2024-03-02T09:26:56;2.42;;;0.63;;
52554;SDS011;38455;52.710;6.502;2024-03-02T09:29:22;1.65;;;0.68;;
52554;SDS011;38455;52.710;6.502;2024-03-02T09:31:48;2.38;;;0.70;;
52554;SDS011;38455;52.710;6.502;2024-03-02T09:34:14;1.92;;;0.60;;
52554;SDS011;38455;52.710;6.502;2024-03-02T09:36:40;3.03;;;0.95;;
52554;SDS011;38455;52.710;6.502;2024-03-02T09:39:09;1.63;;;0.65;;
52554;SDS011;38455;52.710;6.502;2024-03-02T09:41:38;5.63;;;1.05;;
52554;SDS011;38455;52.710;6.502;2024-03-02T09:44:04;1.77;;;0.80;;
52554;SDS011;38455;52.710;6.502;2024-03-02T09:46:34;5.90;;;0.70;;
52554;SDS011;38455;52.710;6.502;2024-03-02T09:49:01;2.67;;;0.75;;
52554;SDS011;38455;52.710;6.502;2024-03-02T09:51:27;1.27;;;0.50;;
52554;SDS011;38455;52.710;6.502;2024-03-02T09:53:53;1.60;;;0.60;;
52554;SDS011;38455;52.710;6.502;2024-03-02T09:56:21;1.50;;;0.50;;
52554;SDS011;38455;52.710;6.502;2024-03-02T09:58:46;1.25;;;0.50;;
52554;SDS011;38455;52.710;6.502;2024-03-02T10:01:12;3.05;;;0.70;;
52554;SDS011;38455;52.710;6.502;2024-03-02T10:03:38;2.15;;;0.70;;
52554;SDS011;38455;52.710;6.502;2024-03-02T10:06:24;2.30;;;0.80;;
52554;SDS011;38455;52.710;6.502;2024-03-02T10:08:50;3.17;;;0.50;;
52554;SDS011;38455;52.710;6.502;2024-03-02T10:11:26;2.22;;;0.60;;
52554;SDS011;38455;52.710;6.502;2024-03-02T10:14:07;1.60;;;0.52;;
52554;SDS011;38455;52.710;6.502;2024-03-02T10:16:34;1.58;;;0.63;;
52554;SDS011;38455;52.710;6.502;2024-03-02T10:19:23;3.05;;;0.63;;
52554;SDS011;38455;52.710;6.502;2024-03-02T10:21:53;1.02;;;0.50;;
52554;SDS011;38455;52.710;6.502;2024-03-02T10:24:20;0.85;;;0.50;;
52554;SDS011;38455;52.710;6.502;2024-03-02T10:26:46;1.05;;;0.45;;
52554;SDS011;38455;52.710;6.502;2024-03-02T10:29:12;1.60;;;0.57;;
52554;SDS011;38455;52.710;6.502;2024-03-02T10:31:39;2.20;;;0.73;;
52554;SDS011;38455;52.710;6.502;2024-03-02T10:34:09;3.63;;;0.93;;
52554;SDS011;38455;52.710;6.502;2024-03-02T10:36:35;1.70;;;0.40;;
52554;SDS011;38455;52.710;6.502;2024-03-02T10:39:06;1.70;;;0.60;;
52554;SDS011;38455;52.710;6.502;2024-03-02T10:41:33;2.20;;;0.47;;
52554;SDS011;38455;52.710;6.502;2024-03-02T10:44:03;3.88;;;0.90;;
52554;SDS011;38455;52.710;6.502;2024-03-02T10:46:31;2.35;;;0.50;;
52554;SDS011;38455;52.710;6.502;2024-03-02T10:48:58;1.75;;;0.70;;
52554;SDS011;38455;52.710;6.502;2024-03-02T10:51:28;2.45;;;0.65;;
52554;SDS011;38455;52.710;6.502;2024-03-02T10:53:56;1.70;;;0.80;;
52554;SDS011;38455;52.710;6.502;2024-03-02T10:56:47;4.13;;;0.90;;
52554;SDS011;38455;52.710;6.502;2024-03-02T11:01:59;1.58;;;0.85;;
52554;SDS011;38455;52.710;6.502;2024-03-02T11:04:29;1.35;;;0.52;;
52554;SDS011;38455;52.710;6.502;2024-03-02T11:07:02;1.60;;;0.52;;
52554;SDS011;38455;52.710;6.502;2024-03-02T11:09:35;2.05;;;0.60;;
52554;SDS011;38455;52.710;6.502;2024-03-02T11:14:41;1.92;;;0.45;;
52554;SDS011;38455;52.710;6.502;2024-03-02T11:17:10;2.30;;;0.63;;
52554;SDS011;38455;52.710;6.502;2024-03-02T11:19:40;3.15;;;0.90;;
52554;SDS011;38455;52.710;6.502;2024-03-02T11:22:07;1.67;;;0.50;;
52554;SDS011;38455;52.710;6.502;2024-03-02T11:24:34;3.55;;;0.70;;
52554;SDS011;38455;52.710;6.502;2024-03-02T11:27:00;2.47;;;0.60;;
52554;SDS011;38455;52.710;6.502;2024-03-02T11:32:05;3.60;;;0.85;;
52554;SDS011;38455;52.710;6.502;2024-03-02T11:34:38;2.13;;;0.52;;
52554;SDS011;38455;52.710;6.502;2024-03-02T11:37:10;1.83;;;0.65;;
52554;SDS011;38455;52.710;6.502;2024-03-02T11:39:37;2.55;;;0.80;;
52554;SDS011;38455;52.710;6.502;2024-03-02T11:42:05;1.60;;;0.50;;
52554;SDS011;38455;52.710;6.502;2024-03-02T11:44:34;3.53;;;0.80;;
52554;SDS011;38455;52.710;6.502;2024-03-02T11:47:02;1.95;;;0.80;;
52554;SDS011;38455;52.710;6.502;2024-03-02T11:49:39;2.22;;;0.50;;
52554;SDS011;38455;52.710;6.502;2024-03-02T11:52:12;1.88;;;0.80;;
52554;SDS011;38455;52.710;6.502;2024-03-02T11:54:39;3.40;;;0.70;;
52554;SDS011;38455;52.710;6.502;2024-03-02T11:57:11;3.58;;;0.77;;
52554;SDS011;38455;52.710;6.502;2024-03-02T11:59:37;2.47;;;0.77;;
52554;SDS011;38455;52.710;6.502;2024-03-02T12:02:03;2.55;;;0.77;;
52554;SDS011;38455;52.710;6.502;2024-03-02T12:04:29;2.03;;;0.80;;
52554;SDS011;38455;52.710;6.502;2024-03-02T12:07:00;1.52;;;0.77;;
52554;SDS011;38455;52.710;6.502;2024-03-02T12:09:26;2.45;;;0.90;;
52554;SDS011;38455;52.710;6.502;2024-03-02T12:12:05;2.10;;;1.10;;
52554;SDS011;38455;52.710;6.502;2024-03-02T12:14:33;4.75;;;0.98;;
52554;SDS011;38455;52.710;6.502;2024-03-02T12:16:59;1.90;;;0.90;;
52554;SDS011;38455;52.710;6.502;2024-03-02T12:19:26;1.55;;;0.70;;
52554;SDS011;38455;52.710;6.502;2024-03-02T12:21:53;2.65;;;1.00;;
52554;SDS011;38455;52.710;6.502;2024-03-02T12:24:20;3.97;;;0.77;;
52554;SDS011;38455;52.710;6.502;2024-03-02T12:26:47;2.15;;;1.08;;
52554;SDS011;38455;52.710;6.502;2024-03-02T12:29:14;2.45;;;1.00;;
52554;SDS011;38455;52.710;6.502;2024-03-02T12:31:40;3.83;;;0.90;;
52554;SDS011;38455;52.710;6.502;2024-03-02T12:34:08;2.08;;;1.10;;
52554;SDS011;38455;52.710;6.502;2024-03-02T12:36:38;3.10;;;0.93;;
52554;SDS011;38455;52.710;6.502;2024-03-02T12:39:04;4.30;;;1.20;;
52554;SDS011;38455;52.710;6.502;2024-03-02T12:41:30;2.13;;;1.10;;
52554;SDS011;38455;52.710;6.502;2024-03-02T12:43:56;2.97;;;1.00;;
52554;SDS011;38455;52.710;6.502;2024-03-02T12:46:21;4.60;;;1.27;;
52554;SDS011;38455;52.710;6.502;2024-03-02T12:48:47;3.60;;;1.27;;
52554;SDS011;38455;52.710;6.502;2024-03-02T12:51:13;4.90;;;1.88;;
52554;SDS011;38455;52.710;6.502;2024-03-02T12:53:39;3.05;;;1.30;;
52554;SDS011;38455;52.710;6.502;2024-03-02T12:56:05;4.20;;;1.50;;
52554;SDS011;38455;52.710;6.502;2024-03-02T12:58:38;2.30;;;1.08;;
52554;SDS011;38455;52.710;6.502;2024-03-02T13:01:09;2.65;;;1.30;;
52554;SDS011;38455;52.710;6.502;2024-03-02T13:03:38;2.63;;;1.08;;
52554;SDS011;38455;52.710;6.502;2024-03-02T13:06:05;4.03;;;1.45;;
52554;SDS011;38455;52.710;6.502;2024-03-02T13:08:32;2.92;;;1.38;;
52554;SDS011;38455;52.710;6.502;2024-03-02T13:10:58;2.88;;;1.50;;
52554;SDS011;38455;52.710;6.502;2024-03-02T13:13:24;3.55;;;1.30;;
52554;SDS011;38455;52.710;6.502;2024-03-02T13:15:50;4.75;;;1.58;;
52554;SDS011;38455;52.710;6.502;2024-03-02T13:18:21;5.18;;;1.58;;
52554;SDS011;38455;52.710;6.502;2024-03-02T13:20:47;3.85;;;1.65;;
52554;SDS011;38455;52.710;6.502;2024-03-02T13:23:13;2.08;;;1.25;;
52554;SDS011;38455;52.710;6.502;2024-03-02T13:25:39;5.15;;;1.33;;
52554;SDS011;38455;52.710;6.502;2024-03-02T13:28:05;5.05;;;1.65;;
52554;SDS011;38455;52.710;6.502;2024-03-02T13:30:31;4.25;;;1.85;;
52554;SDS011;38455;52.710;6.502;2024-03-02T13:32:57;3.67;;;1.83;;
52554;SDS011;38455;52.710;6.502;2024-03-02T13:35:23;3.28;;;1.48;;
52554;SDS011;38455;52.710;6.502;2024-03-02T13:37:49;3.15;;;1.85;;
52554;SDS011;38455;52.710;6.502;2024-03-02T13:40:15;2.85;;;1.92;;
52554;SDS011;38455;52.710;6.502;2024-03-02T13:42:45;3.67;;;2.13;;
52554;SDS011;38455;52.710;6.502;2024-03-02T13:45:12;4.07;;;2.22;;
52554;SDS011;38455;52.710;6.502;2024-03-02T13:47:38;4.50;;;2.13;;
52554;SDS011;38455;52.710;6.502;2024-03-02T13:50:04;5.00;;;2.20;;
52554;SDS011;38455;52.710;6.502;2024-03-02T13:52:30;4.05;;;2.05;;
52554;SDS011;38455;52.710;6.502;2024-03-02T13:54:56;4.38;;;2.47;;
52554;SDS011;38455;52.710;6.502;2024-03-02T13:57:21;4.00;;;2.42;;
52554;SDS011;38455;52.710;6.502;2024-03-02T13:59:48;5.18;;;2.22;;
52554;SDS011;38455;52.710;6.502;2024-03-02T14:02:15;5.70;;;2.17;;
52554;SDS011;38455;52.710;6.502;2024-03-02T14:04:41;4.45;;;2.30;;
52554;SDS011;38455;52.710;6.502;2024-03-02T14:07:06;3.30;;;2.03;;
52554;SDS011;38455;52.710;6.502;2024-03-02T14:09:32;3.95;;;1.90;;
52554;SDS011;38455;52.710;6.502;2024-03-02T14:11:58;5.70;;;2.40;;
52554;SDS011;38455;52.710;6.502;2024-03-02T14:14:25;6.65;;;2.05;;
52554;SDS011;38455;52.710;6.502;2024-03-02T14:16:54;4.55;;;1.80;;
52554;SDS011;38455;52.710;6.502;2024-03-02T14:19:29;2.63;;;1.67;;
52554;SDS011;38455;52.710;6.502;2024-03-02T14:21:55;4.80;;;1.70;;
52554;SDS011;38455;52.710;6.502;2024-03-02T14:24:21;3.85;;;1.67;;
52554;SDS011;38455;52.710;6.502;2024-03-02T14:26:54;3.97;;;1.60;;
52554;SDS011;38455;52.710;6.502;2024-03-02T14:29:19;5.80;;;1.48;;
52554;SDS011;38455;52.710;6.502;2024-03-02T14:31:45;3.63;;;1.60;;
52554;SDS011;38455;52.710;6.502;2024-03-02T14:34:13;7.82;;;1.65;;
52554;SDS011;38455;52.710;6.502;2024-03-02T14:36:39;3.47;;;1.50;;
52554;SDS011;38455;52.710;6.502;2024-03-02T14:39:06;3.30;;;1.60;;
52554;SDS011;38455;52.710;6.502;2024-03-02T14:41:35;3.53;;;1.60;;
52554;SDS011;38455;52.710;6.502;2024-03-02T14:44:04;2.95;;;1.60;;
52554;SDS011;38455;52.710;6.502;2024-03-02T14:46:30;4.03;;;1.40;;
52554;SDS011;38455;52.710;6.502;2024-03-02T14:48:55;3.40;;;1.95;;
52554;SDS011;38455;52.710;6.502;2024-03-02T14:51:21;3.05;;;1.48;;
52554;SDS011;38455;52.710;6.502;2024-03-02T14:53:47;3.88;;;1.88;;
52554;SDS011;38455;52.710;6.502;2024-03-02T14:56:13;5.70;;;1.55;;